createdAt,value
2022-08-30T00:01:03.716Z,97875.31
2022-08-30T00:04:08.357Z,97873.13
2022-08-30T00:07:11.155Z,97880.16
2022-08-30T00:10:13.988Z,97872.69
2022-08-30T00:13:19.550Z,97869.94
2022-08-30T00:16:23.885Z,97870.59
2022-08-30T00:19:26.746Z,97876.41
2022-08-30T00:22:29.635Z,97882.13
2022-08-30T00:25:32.624Z,97881.16
2022-08-30T00:28:37.434Z,97877.94
2022-08-30T00:31:40.210Z,97871.56
2022-08-30T00:34:42.977Z,97871.22
2022-08-30T00:37:45.794Z,97874.16
2022-08-30T00:40:48.606Z,97862.00
2022-08-30T00:43:52.778Z,97858.72
2022-08-30T00:46:55.610Z,97855.41
2022-08-30T00:49:58.927Z,97855.63
2022-08-30T00:53:05.727Z,97855.00
2022-08-30T00:56:08.668Z,97846.41
2022-08-30T00:59:13.003Z,97849.88
2022-08-30T01:02:17.275Z,97840.16
2022-08-30T01:05:22.253Z,97846.31
2022-08-30T01:08:25.055Z,97851.59
2022-08-30T01:11:28.263Z,97860.44
2022-08-30T01:14:33.375Z,97848.00
2022-08-30T01:17:41.432Z,97855.72
2022-08-30T01:20:50.999Z,97854.63
2022-08-30T01:23:58.206Z,97857.88
2022-08-30T01:27:39.881Z,97869.38
2022-08-30T01:30:43.596Z,97865.25
2022-08-30T01:33:46.354Z,97863.72
2022-08-30T01:36:50.513Z,97875.94
2022-08-30T01:39:55.391Z,97879.66
2022-08-30T01:42:58.155Z,97890.03
2022-08-30T01:46:02.001Z,97889.13
2022-08-30T01:49:07.666Z,97896.66
2022-08-30T01:52:10.596Z,97901.88
2022-08-30T01:55:15.004Z,97896.81
2022-08-30T01:58:17.785Z,97895.13
2022-08-30T02:01:24.482Z,97890.22
2022-08-30T02:04:27.310Z,97877.13
2022-08-30T02:07:30.336Z,97867.72
2022-08-30T02:10:34.631Z,97873.72
2022-08-30T02:13:38.700Z,97864.09
2022-08-30T02:16:42.096Z,97853.88
2022-08-30T02:19:44.952Z,97848.78
2022-08-30T02:22:49.550Z,97856.91
2022-08-30T02:25:54.098Z,97850.53
2022-08-30T02:28:57.306Z,97855.81
2022-08-30T02:32:01.951Z,97860.28
2022-08-30T02:35:05.406Z,97862.50
2022-08-30T02:38:09.052Z,97865.50
2022-08-30T02:41:13.334Z,97874.13
2022-08-30T02:44:16.260Z,97867.94
2022-08-30T02:47:19.311Z,97870.94
2022-08-30T02:50:22.720Z,97869.31
2022-08-30T02:53:25.512Z,97875.84
2022-08-30T02:56:31.198Z,97874.03
2022-08-30T02:59:34.297Z,97878.50
2022-08-30T03:02:37.114Z,97877.75
2022-08-30T03:05:40.321Z,97868.22
2022-08-30T03:08:44.950Z,97868.03
2022-08-30T03:11:49.069Z,97864.09
2022-08-30T03:14:52.407Z,97876.91
2022-08-30T03:17:56.583Z,97867.38
2022-08-30T03:20:59.314Z,97871.00
2022-08-30T03:24:02.098Z,97861.09
2022-08-30T03:27:06.255Z,97870.91
2022-08-30T03:30:10.649Z,97859.59
2022-08-30T03:33:13.543Z,97864.88
2022-08-30T03:36:16.322Z,97863.09
2022-08-30T03:39:19.118Z,97868.41
2022-08-30T03:42:23.278Z,97875.16
2022-08-30T03:45:27.601Z,97891.00
2022-08-30T03:48:31.671Z,97898.91
2022-08-30T03:51:34.855Z,97901.91
2022-08-30T03:54:38.617Z,97905.47
2022-08-30T03:57:43.897Z,97908.56
2022-08-30T04:00:47.053Z,97909.09
2022-08-30T04:03:50.061Z,97915.78
2022-08-30T04:06:52.958Z,97925.34
2022-08-30T04:09:55.883Z,97931.09
2022-08-30T04:13:00.053Z,97942.84
2022-08-30T04:16:03.090Z,97937.88
2022-08-30T04:19:05.944Z,97949.75
2022-08-30T04:22:09.106Z,97948.78
2022-08-30T04:25:15.626Z,97942.84
2022-08-30T04:28:20.051Z,97951.53
2022-08-30T04:31:23.350Z,97953.19
2022-08-30T04:34:26.981Z,97954.84
2022-08-30T04:37:29.713Z,97951.50
2022-08-30T04:40:32.771Z,97950.06
2022-08-30T04:43:36.961Z,97954.19
2022-08-30T04:46:44.458Z,97965.91
2022-08-30T04:49:47.650Z,97972.13
2022-08-30T04:52:50.392Z,97968.97
2022-08-30T04:55:53.170Z,97964.88
2022-08-30T04:58:57.379Z,97961.56
2022-08-30T05:02:00.576Z,97964.50
2022-08-30T05:05:21.897Z,97979.38
2022-08-30T05:08:25.208Z,97994.72
2022-08-30T05:11:28.401Z,97990.25
2022-08-30T05:14:34.325Z,98002.94
2022-08-30T05:17:38.544Z,97993.72
2022-08-30T05:20:41.606Z,98004.13
2022-08-30T05:23:45.233Z,98004.78
2022-08-30T05:29:52.863Z,98019.63
2022-08-30T05:32:56.060Z,98014.81
2022-08-30T05:35:59.186Z,98004.06
2022-08-30T05:39:05.641Z,98001.75
2022-08-30T05:42:08.675Z,98003.28
2022-08-30T05:45:14.292Z,98011.16
2022-08-30T05:48:17.113Z,97998.94
2022-08-30T05:51:22.133Z,97996.25
2022-08-30T05:54:24.912Z,97990.25
2022-08-30T05:57:27.785Z,97987.91
2022-08-30T06:00:31.937Z,97977.09
2022-08-30T06:03:34.720Z,97967.63
2022-08-30T06:06:40.451Z,97964.56
2022-08-30T06:09:43.267Z,97962.22
2022-08-30T06:12:46.057Z,97955.88
2022-08-30T06:15:51.269Z,97958.16
2022-08-30T06:18:54.848Z,97949.63
2022-08-30T06:21:57.660Z,97938.97
2022-08-30T06:25:00.402Z,97923.91
2022-08-30T06:28:03.544Z,97910.59
2022-08-30T06:31:08.677Z,97900.19
2022-08-30T06:34:11.551Z,97891.38
2022-08-30T06:37:25.590Z,97901.13
2022-08-30T06:40:32.920Z,97893.81
2022-08-30T06:43:35.773Z,97883.09
2022-08-30T06:46:40.635Z,97882.88
2022-08-30T06:49:43.388Z,97888.47
2022-08-30T06:52:48.427Z,97879.91
2022-08-30T06:55:56.506Z,97861.59
2022-08-30T06:59:00.752Z,97856.41
2022-08-30T07:02:05.942Z,97852.63
2022-08-30T07:05:15.326Z,97847.56
2022-08-30T07:08:19.572Z,97840.31
2022-08-30T07:11:30.787Z,97839.38
2022-08-30T07:14:33.512Z,97847.59
2022-08-30T07:17:55.207Z,97834.31
2022-08-30T07:20:58.500Z,97841.72
2022-08-30T07:24:02.335Z,97837.63
2022-08-30T07:27:05.095Z,97832.75
2022-08-30T07:30:10.331Z,97843.16
2022-08-30T07:33:14.415Z,97847.84
2022-08-30T07:36:18.371Z,97831.91
2022-08-30T07:39:21.712Z,97835.19
2022-08-30T07:42:24.460Z,97831.44
2022-08-30T07:45:27.199Z,97833.47
2022-08-30T07:48:31.372Z,97838.34
2022-08-30T07:51:34.773Z,97830.13
2022-08-30T07:54:37.536Z,97835.81
2022-08-30T07:57:40.378Z,97837.84
2022-08-30T08:00:43.376Z,97843.38
2022-08-30T08:03:48.157Z,97845.38
2022-08-30T08:06:50.998Z,97846.75
2022-08-30T08:09:53.797Z,97833.97
2022-08-30T08:12:56.581Z,97833.50
2022-08-30T08:15:59.375Z,97828.66
2022-08-30T08:19:03.966Z,97824.06
2022-08-30T08:22:20.572Z,97821.66
2022-08-30T08:25:24.116Z,97834.44
2022-08-30T08:28:27.108Z,97830.44
2022-08-30T08:31:33.153Z,97836.91
2022-08-30T08:34:38.416Z,97855.91
2022-08-30T08:37:41.540Z,97866.50
2022-08-30T08:40:54.342Z,97870.53
2022-08-30T08:43:57.321Z,97858.88
2022-08-30T08:47:11.028Z,97863.63
2022-08-30T08:50:20.598Z,97876.25
2022-08-30T08:53:46.003Z,97890.97
2022-08-30T08:56:49.908Z,97908.19
2022-08-30T08:59:54.489Z,97905.84
2022-08-30T09:03:00.884Z,97909.47
2022-08-30T09:06:07.853Z,97900.06
2022-08-30T09:09:10.825Z,97899.75
2022-08-30T09:12:14.875Z,97909.41
2022-08-30T09:15:21.709Z,97905.00
2022-08-30T09:18:45.520Z,97906.88
2022-08-30T09:21:58.027Z,97908.25
2022-08-30T09:25:05.065Z,97900.59
2022-08-30T09:32:57.265Z,97903.97
2022-08-30T09:36:23.535Z,97909.31
2022-08-30T09:39:32.409Z,97908.97
2022-08-30T09:42:35.261Z,97910.34
2022-08-30T09:45:40.585Z,97897.34
2022-08-30T09:48:45.257Z,97905.63
2022-08-30T09:51:53.196Z,97902.72
2022-08-30T09:55:10.887Z,97903.63
2022-08-30T09:58:23.252Z,97906.22
2022-08-30T10:01:31.594Z,97898.28
2022-08-30T10:04:45.220Z,97894.19
2022-08-30T10:12:43.296Z,97886.84
2022-08-30T10:15:51.010Z,97873.16
2022-08-30T10:19:04.263Z,97868.91
2022-08-30T10:22:14.416Z,97875.56
2022-08-30T10:25:22.061Z,97874.44
2022-08-30T10:28:34.926Z,97877.06
2022-08-30T10:31:43.110Z,97881.91
2022-08-30T10:34:54.096Z,97874.44
2022-08-30T10:38:02.354Z,97872.75
2022-08-30T10:41:25.636Z,97861.41
2022-08-30T10:44:33.693Z,97867.75
2022-08-30T10:47:42.017Z,97861.91
2022-08-30T10:50:49.850Z,97870.47
2022-08-30T10:53:57.961Z,97870.81
2022-08-30T10:57:01.657Z,97868.84
2022-08-30T11:00:10.579Z,97860.00
2022-08-30T11:03:52.463Z,97870.06
2022-08-30T11:07:09.828Z,97869.91
2022-08-30T11:14:11.391Z,97875.50
2022-08-30T11:17:28.495Z,97866.38
2022-08-30T11:20:37.729Z,97869.34
2022-08-30T11:23:40.595Z,97867.63
2022-08-30T11:27:01.734Z,97863.47
2022-08-30T11:30:36.806Z,97866.91
2022-08-30T11:33:47.945Z,97853.66
2022-08-30T11:37:09.747Z,97858.69
2022-08-30T11:40:49.298Z,97858.06
2022-08-30T11:43:55.669Z,97861.66
2022-08-30T11:47:01.118Z,97853.72
2022-08-30T11:50:14.060Z,97853.81
2022-08-30T11:53:25.022Z,97852.28
2022-08-30T11:56:34.442Z,97847.97
2022-08-30T11:59:51.958Z,97846.81
2022-08-30T12:02:58.447Z,97849.06
2022-08-30T12:06:05.556Z,97843.34
2022-08-30T12:09:09.841Z,97837.84
2022-08-30T12:12:33.631Z,97834.63
2022-08-30T12:15:59.370Z,97837.53
2022-08-30T12:19:16.716Z,97837.53
2022-08-30T12:22:23.193Z,97829.84
2022-08-30T12:25:30.756Z,97832.13
2022-08-30T12:28:33.813Z,97823.84
2022-08-30T12:31:43.760Z,97818.34
2022-08-30T12:34:52.454Z,97814.84
2022-08-30T12:38:01.195Z,97810.38
2022-08-30T12:41:05.870Z,97808.53
2022-08-30T12:44:13.383Z,97809.00
2022-08-30T12:47:20.701Z,97811.03
2022-08-30T12:50:27.851Z,97807.22
2022-08-30T12:53:33.647Z,97802.09
2022-08-30T12:56:55.878Z,97804.22
2022-08-30T12:59:59.589Z,97802.41
2022-08-30T13:03:28.363Z,97796.38
2022-08-30T13:06:44.270Z,97803.31
2022-08-30T13:09:47.228Z,97809.25
2022-08-30T13:13:09.377Z,97800.84
2022-08-30T13:16:23.332Z,97797.75
2022-08-30T13:19:34.426Z,97793.13
2022-08-30T13:22:41.316Z,97795.66
2022-08-30T13:25:45.253Z,97794.59
2022-08-30T13:28:50.533Z,97798.16
2022-08-30T13:31:53.837Z,97792.78
2022-08-30T13:35:00.651Z,97793.75
2022-08-30T13:38:04.228Z,97785.31
2022-08-30T13:41:08.105Z,97785.56
2022-08-30T13:44:15.988Z,97789.88
2022-08-30T13:47:37.172Z,97784.75
2022-08-30T13:53:53.310Z,97781.44
2022-08-30T13:56:58.109Z,97798.03
2022-08-30T14:00:01.132Z,97793.13
2022-08-30T14:03:04.180Z,97794.94
2022-08-30T14:06:31.880Z,97795.25
2022-08-30T14:09:32.799Z,97792.47
2022-08-30T14:19:23.706Z,97791.97
2022-08-30T14:22:28.190Z,97786.94
2022-08-30T14:25:31.036Z,97792.75
2022-08-30T14:28:33.854Z,97788.56
2022-08-30T14:31:39.126Z,97782.63
2022-08-30T14:34:42.020Z,97788.16
2022-08-30T14:37:46.312Z,97786.53
2022-08-30T14:40:49.073Z,97782.56
2022-08-30T14:43:52.071Z,97785.59
2022-08-30T14:46:55.399Z,97779.53
2022-08-30T14:50:00.898Z,97780.09
2022-08-30T14:53:06.197Z,97780.59
2022-08-30T14:56:11.437Z,97777.91
2022-08-30T14:59:14.725Z,97775.31
2022-08-30T15:02:17.650Z,97775.47
2022-08-30T15:05:21.383Z,97776.66
2022-08-30T15:08:26.487Z,97777.50
2022-08-30T15:11:29.568Z,97774.06
2022-08-30T15:14:33.313Z,97775.06
2022-08-30T15:17:36.236Z,97778.53
2022-08-30T15:20:46.637Z,97777.28
2022-08-30T15:23:50.832Z,97774.34
2022-08-30T15:26:55.451Z,97778.91
2022-08-30T15:29:58.353Z,97775.31
2022-08-30T15:33:01.378Z,97776.13
2022-08-30T15:36:05.799Z,97772.28
2022-08-30T15:39:10.669Z,97778.00
2022-08-30T15:42:16.391Z,97773.78
2022-08-30T15:45:22.653Z,97774.41
2022-08-30T15:48:25.719Z,97768.09
2022-08-30T15:51:30.876Z,97770.78
2022-08-30T15:54:48.436Z,97776.53
2022-08-30T15:57:51.376Z,97775.81
2022-08-30T16:00:54.267Z,97766.69
2022-08-30T16:03:57.327Z,97767.09
2022-08-30T16:07:00.334Z,97766.66
2022-08-30T16:10:04.877Z,97760.50
2022-08-30T16:13:08.283Z,97762.59
2022-08-30T16:16:11.788Z,97758.69
2022-08-30T16:19:14.691Z,97759.63
2022-08-30T16:22:22.098Z,97749.88
2022-08-30T16:25:26.796Z,97746.41
2022-08-30T16:28:43.844Z,97740.84
2022-08-30T16:31:47.463Z,97748.66
2022-08-30T16:34:50.361Z,97743.91
2022-08-30T16:37:53.235Z,97738.00
2022-08-30T16:40:57.950Z,97737.16
2022-08-30T16:44:03.796Z,97736.03
2022-08-30T16:47:12.776Z,97732.38
2022-08-30T16:50:18.495Z,97722.25
2022-08-30T16:53:21.297Z,97718.19
2022-08-30T16:56:27.145Z,97726.22
2022-08-30T16:59:30.197Z,97725.06
2022-08-30T17:02:34.318Z,97717.16
2022-08-30T17:05:38.077Z,97716.38
2022-08-30T17:08:41.033Z,97708.47
2022-08-30T17:11:45.409Z,97707.19
2022-08-30T17:14:48.206Z,97712.91
2022-08-30T17:17:52.413Z,97718.38
2022-08-30T17:20:55.688Z,97710.56
2022-08-30T17:24:01.859Z,97734.53
2022-08-30T17:27:07.327Z,97733.16
2022-08-30T17:30:11.902Z,97736.19
2022-08-30T17:33:15.166Z,97726.47
2022-08-30T17:36:20.660Z,97738.97
2022-08-30T17:39:24.525Z,97728.06
2022-08-30T17:42:29.766Z,97725.31
2022-08-30T17:45:33.022Z,97726.13
2022-08-30T17:48:37.513Z,97719.41
2022-08-30T17:51:42.781Z,97728.88
2022-08-30T17:54:46.028Z,97733.78
2022-08-30T17:57:50.927Z,97739.00
2022-08-30T18:00:57.076Z,97734.31
2022-08-30T18:04:06.087Z,97731.88
2022-08-30T18:07:11.831Z,97733.34
2022-08-30T18:10:15.085Z,97736.66
2022-08-30T18:13:20.805Z,97738.38
2022-08-30T18:16:26.645Z,97739.94
2022-08-30T18:19:32.114Z,97753.00
2022-08-30T18:22:35.296Z,97745.38
2022-08-30T18:25:38.470Z,97745.13
2022-08-30T18:28:43.950Z,97750.47
2022-08-30T18:31:47.104Z,97754.41
2022-08-30T18:34:49.928Z,97754.78
2022-08-30T18:37:54.225Z,97760.47
2022-08-30T18:40:59.620Z,97756.34
2022-08-30T18:44:26.278Z,97762.84
2022-08-30T18:47:29.140Z,97762.78
2022-08-30T18:50:34.230Z,97758.81
2022-08-30T18:53:37.174Z,97754.13
2022-08-30T18:56:40.839Z,97755.97
2022-08-30T18:59:49.665Z,97763.63
2022-08-30T19:02:53.262Z,97753.59
2022-08-30T19:05:58.493Z,97752.97
2022-08-30T19:09:02.340Z,97746.09
2022-08-30T19:12:12.144Z,97749.22
2022-08-30T19:15:16.605Z,97742.66
2022-08-30T19:18:20.743Z,97742.25
2022-08-30T19:21:23.918Z,97736.09
2022-08-30T19:24:29.041Z,97741.22
2022-08-30T19:27:37.557Z,97749.41
2022-08-30T19:30:43.517Z,97749.22
2022-08-30T19:33:47.444Z,97757.41
2022-08-30T19:36:50.427Z,97757.66
2022-08-30T19:39:53.374Z,97754.22
2022-08-30T19:42:56.787Z,97750.50
2022-08-30T19:46:02.246Z,97739.84
2022-08-30T19:49:10.343Z,97742.38
2022-08-30T19:52:14.048Z,97748.94
2022-08-30T19:55:17.092Z,97741.75
2022-08-30T19:58:27.101Z,97741.59
2022-08-30T20:01:32.662Z,97748.38
2022-08-30T20:04:37.050Z,97743.28
2022-08-30T20:07:47.064Z,97742.91
2022-08-30T20:10:56.658Z,97746.53
2022-08-30T20:14:01.327Z,97747.78
2022-08-30T20:17:12.033Z,97749.41
2022-08-30T20:20:17.876Z,97747.63
2022-08-30T20:23:25.255Z,97745.81
2022-08-30T20:26:33.912Z,97748.28
2022-08-30T20:29:37.910Z,97748.09
2022-08-30T20:32:49.556Z,97755.28
2022-08-30T20:35:53.393Z,97748.75
2022-08-30T20:38:56.225Z,97748.75
2022-08-30T20:41:59.355Z,97756.34
2022-08-30T20:45:02.567Z,97745.50
2022-08-30T20:48:06.758Z,97744.81
2022-08-30T20:51:11.621Z,97753.00
2022-08-30T20:54:14.803Z,97754.38
2022-08-30T20:57:20.281Z,97758.13
2022-08-30T21:00:27.540Z,97767.72
2022-08-30T21:03:32.808Z,97769.75
2022-08-30T21:06:37.800Z,97761.13
2022-08-30T21:09:42.145Z,97759.94
2022-08-30T21:12:45.330Z,97763.22
2022-08-30T21:15:52.356Z,97780.38
2022-08-30T21:18:57.095Z,97780.81
2022-08-30T21:22:00.277Z,97784.06
2022-08-30T21:25:03.438Z,97784.06
2022-08-30T21:28:06.587Z,97782.88
2022-08-30T21:31:11.977Z,97790.19
2022-08-30T21:34:17.516Z,97799.63
2022-08-30T21:37:19.536Z,97797.38
2022-08-30T21:40:22.518Z,97806.78
2022-08-30T21:43:25.395Z,97811.28
2022-08-30T21:46:30.496Z,97810.25
2022-08-30T21:49:34.905Z,97815.16
2022-08-30T21:52:37.670Z,97813.13
2022-08-30T21:55:40.873Z,97823.75
2022-08-30T21:59:06.881Z,97806.56
2022-08-30T22:02:12.139Z,97821.28
2022-08-30T22:05:16.290Z,97825.75
2022-08-30T22:08:19.129Z,97828.66
2022-08-30T22:11:25.007Z,97817.59
2022-08-30T22:14:28.126Z,97815.97
2022-08-30T22:17:30.956Z,97828.38
2022-08-30T22:20:35.090Z,97828.63
2022-08-30T22:23:39.671Z,97838.84
2022-08-30T22:26:44.815Z,97844.50
2022-08-30T22:29:47.968Z,97831.28
2022-08-30T22:32:51.487Z,97835.59
2022-08-30T22:35:57.519Z,97832.31
2022-08-30T22:39:03.160Z,97830.28
2022-08-30T22:42:06.510Z,97831.06
2022-08-30T22:45:10.870Z,97839.78
2022-08-30T22:48:13.672Z,97838.59
2022-08-30T22:51:19.821Z,97848.03
2022-08-30T22:54:22.731Z,97848.44
2022-08-30T22:57:25.962Z,97857.09
2022-08-30T23:00:28.793Z,97858.31
2022-08-30T23:03:31.559Z,97849.41
2022-08-30T23:06:36.134Z,97846.03
2022-08-30T23:09:39.019Z,97852.69
2022-08-30T23:12:43.031Z,97871.88
2022-08-30T23:15:46.260Z,97886.88
2022-08-30T23:18:49.909Z,97905.03
2022-08-30T23:21:54.041Z,97919.28
2022-08-30T23:25:16.130Z,97917.66
2022-08-30T23:28:39.302Z,97923.63
2022-08-30T23:31:59.681Z,97914.38
2022-08-30T23:35:20.216Z,97924.59
2022-08-30T23:38:47.104Z,97922.44
2022-08-30T23:42:07.500Z,97907.19
2022-08-30T23:45:28.092Z,97898.19
2022-08-30T23:48:50.788Z,97892.63
2022-08-30T23:52:12.448Z,97881.44
2022-08-30T23:55:34.502Z,97867.34
2022-08-30T23:58:54.775Z,97860.00
